sensor_id;sensor_type;location;lat;lon;timestamp;P1;durP1;ratioP1;P2;durP2;ratioP2
5616;SDS011;2830;50.656;7.568;2023-12-20T00:02:16;2.17;;;1.50;;
5616;SDS011;2830;50.656;7.568;2023-12-20T00:04:42;3.70;;;1.67;;
5616;SDS011;2830;50.656;7.568;2023-12-20T00:07:11;4.25;;;1.48;;
5616;SDS011;2830;50.656;7.568;2023-12-20T00:09:38;1.42;;;1.00;;
5616;SDS011;2830;50.656;7.568;2023-12-20T00:12:05;1.83;;;1.35;;
5616;SDS011;2830;50.656;7.568;2023-12-20T00:14:32;2.22;;;1.40;;
5616;SDS011;2830;50.656;7.568;2023-12-20T00:16:59;2.80;;;1.48;;
5616;SDS011;2830;50.656;7.568;2023-12-20T00:19:25;1.58;;;1.10;;
5616;SDS011;2830;50.656;7.568;2023-12-20T00:21:52;1.98;;;1.40;;
5616;SDS011;2830;50.656;7.568;2023-12-20T00:24:19;1.83;;;1.10;;
5616;SDS011;2830;50.656;7.568;2023-12-20T00:26:46;1.67;;;1.20;;
5616;SDS011;2830;50.656;7.568;2023-12-20T00:29:13;3.75;;;1.30;;
5616;SDS011;2830;50.656;7.568;2023-12-20T00:31:40;1.75;;;1.15;;
5616;SDS011;2830;50.656;7.568;2023-12-20T00:34:07;2.40;;;1.25;;
5616;SDS011;2830;50.656;7.568;2023-12-20T00:36:35;1.80;;;1.40;;
5616;SDS011;2830;50.656;7.568;2023-12-20T00:39:02;2.30;;;1.35;;
5616;SDS011;2830;50.656;7.568;2023-12-20T00:41:29;2.20;;;1.70;;
5616;SDS011;2830;50.656;7.568;2023-12-20T00:43:56;2.30;;;1.98;;
5616;SDS011;2830;50.656;7.568;2023-12-20T00:46:23;2.20;;;1.70;;
5616;SDS011;2830;50.656;7.568;2023-12-20T00:48:50;3.38;;;1.83;;
5616;SDS011;2830;50.656;7.568;2023-12-20T00:51:17;2.50;;;1.83;;
5616;SDS011;2830;50.656;7.568;2023-12-20T00:53:43;2.10;;;1.90;;
5616;SDS011;2830;50.656;7.568;2023-12-20T00:56:10;2.40;;;1.67;;
5616;SDS011;2830;50.656;7.568;2023-12-20T00:58:37;2.90;;;1.98;;
5616;SDS011;2830;50.656;7.568;2023-12-20T01:01:04;2.85;;;2.03;;
5616;SDS011;2830;50.656;7.568;2023-12-20T01:03:31;2.38;;;1.88;;
5616;SDS011;2830;50.656;7.568;2023-12-20T01:05:58;2.95;;;1.90;;
5616;SDS011;2830;50.656;7.568;2023-12-20T01:08:25;2.17;;;1.63;;
5616;SDS011;2830;50.656;7.568;2023-12-20T01:10:52;2.33;;;2.00;;
5616;SDS011;2830;50.656;7.568;2023-12-20T01:13:18;2.33;;;1.70;;
5616;SDS011;2830;50.656;7.568;2023-12-20T01:15:45;2.35;;;1.60;;
5616;SDS011;2830;50.656;7.568;2023-12-20T01:18:13;3.53;;;1.90;;
5616;SDS011;2830;50.656;7.568;2023-12-20T01:20:41;2.60;;;1.92;;
5616;SDS011;2830;50.656;7.568;2023-12-20T01:23:07;1.85;;;1.15;;
5616;SDS011;2830;50.656;7.568;2023-12-20T01:25:34;2.25;;;1.55;;
5616;SDS011;2830;50.656;7.568;2023-12-20T01:28:01;1.95;;;1.52;;
5616;SDS011;2830;50.656;7.568;2023-12-20T01:30:29;2.30;;;1.60;;
5616;SDS011;2830;50.656;7.568;2023-12-20T01:32:56;2.80;;;2.13;;
5616;SDS011;2830;50.656;7.568;2023-12-20T01:35:23;2.72;;;2.08;;
5616;SDS011;2830;50.656;7.568;2023-12-20T01:37:50;2.10;;;1.45;;
5616;SDS011;2830;50.656;7.568;2023-12-20T01:40:17;2.67;;;1.55;;
5616;SDS011;2830;50.656;7.568;2023-12-20T01:42:45;2.80;;;1.85;;
5616;SDS011;2830;50.656;7.568;2023-12-20T01:45:13;3.00;;;1.88;;
5616;SDS011;2830;50.656;7.568;2023-12-20T01:47:40;3.05;;;2.03;;
5616;SDS011;2830;50.656;7.568;2023-12-20T01:50:07;2.63;;;2.10;;
5616;SDS011;2830;50.656;7.568;2023-12-20T01:52:35;3.22;;;2.40;;
5616;SDS011;2830;50.656;7.568;2023-12-20T01:55:04;5.60;;;3.90;;
5616;SDS011;2830;50.656;7.568;2023-12-20T01:57:39;5.82;;;4.43;;
5616;SDS011;2830;50.656;7.568;2023-12-20T02:00:08;8.23;;;4.50;;
5616;SDS011;2830;50.656;7.568;2023-12-20T02:02:36;7.40;;;4.50;;
5616;SDS011;2830;50.656;7.568;2023-12-20T02:05:06;7.97;;;5.20;;
5616;SDS011;2830;50.656;7.568;2023-12-20T02:07:34;6.07;;;4.30;;
5616;SDS011;2830;50.656;7.568;2023-12-20T02:10:01;7.65;;;3.70;;
5616;SDS011;2830;50.656;7.568;2023-12-20T02:12:30;8.27;;;4.68;;
5616;SDS011;2830;50.656;7.568;2023-12-20T02:14:57;11.43;;;4.50;;
5616;SDS011;2830;50.656;7.568;2023-12-20T02:17:23;8.15;;;5.82;;
5616;SDS011;2830;50.656;7.568;2023-12-20T02:19:51;12.10;;;4.70;;
5616;SDS011;2830;50.656;7.568;2023-12-20T02:22:18;11.80;;;6.28;;
5616;SDS011;2830;50.656;7.568;2023-12-20T02:24:45;9.77;;;5.82;;
5616;SDS011;2830;50.656;7.568;2023-12-20T02:27:12;8.90;;;5.97;;
5616;SDS011;2830;50.656;7.568;2023-12-20T02:29:40;12.55;;;5.20;;
5616;SDS011;2830;50.656;7.568;2023-12-20T02:32:07;8.65;;;5.78;;
5616;SDS011;2830;50.656;7.568;2023-12-20T02:34:34;11.85;;;6.20;;
5616;SDS011;2830;50.656;7.568;2023-12-20T02:37:01;13.90;;;6.53;;
5616;SDS011;2830;50.656;7.568;2023-12-20T02:39:28;11.57;;;7.65;;
5616;SDS011;2830;50.656;7.568;2023-12-20T02:41:54;14.90;;;7.25;;
5616;SDS011;2830;50.656;7.568;2023-12-20T02:44:21;14.80;;;8.10;;
5616;SDS011;2830;50.656;7.568;2023-12-20T02:46:48;13.25;;;8.07;;
5616;SDS011;2830;50.656;7.568;2023-12-20T02:49:15;17.05;;;8.68;;
5616;SDS011;2830;50.656;7.568;2023-12-20T02:51:42;13.80;;;8.80;;
5616;SDS011;2830;50.656;7.568;2023-12-20T02:54:09;16.33;;;10.70;;
5616;SDS011;2830;50.656;7.568;2023-12-20T02:56:36;13.45;;;8.77;;
5616;SDS011;2830;50.656;7.568;2023-12-20T02:59:03;15.35;;;8.95;;
5616;SDS011;2830;50.656;7.568;2023-12-20T03:01:32;16.95;;;8.55;;
5616;SDS011;2830;50.656;7.568;2023-12-20T03:03:59;15.77;;;9.48;;
5616;SDS011;2830;50.656;7.568;2023-12-20T03:06:26;15.70;;;8.13;;
5616;SDS011;2830;50.656;7.568;2023-12-20T03:08:53;12.90;;;7.88;;
5616;SDS011;2830;50.656;7.568;2023-12-20T03:11:20;17.20;;;8.32;;
5616;SDS011;2830;50.656;7.568;2023-12-20T03:13:46;12.43;;;7.90;;
5616;SDS011;2830;50.656;7.568;2023-12-20T03:16:13;12.45;;;8.23;;
5616;SDS011;2830;50.656;7.568;2023-12-20T03:18:42;12.80;;;8.40;;
5616;SDS011;2830;50.656;7.568;2023-12-20T03:21:09;19.17;;;7.93;;
5616;SDS011;2830;50.656;7.568;2023-12-20T03:23:36;15.32;;;7.72;;
5616;SDS011;2830;50.656;7.568;2023-12-20T03:26:03;9.30;;;5.65;;
5616;SDS011;2830;50.656;7.568;2023-12-20T03:28:32;9.77;;;6.40;;
5616;SDS011;2830;50.656;7.568;2023-12-20T03:31:00;10.25;;;5.85;;
5616;SDS011;2830;50.656;7.568;2023-12-20T03:33:29;15.45;;;5.22;;
5616;SDS011;2830;50.656;7.568;2023-12-20T03:35:56;9.45;;;4.90;;
5616;SDS011;2830;50.656;7.568;2023-12-20T03:38:22;8.02;;;4.55;;
5616;SDS011;2830;50.656;7.568;2023-12-20T03:40:50;16.13;;;5.00;;
5616;SDS011;2830;50.656;7.568;2023-12-20T03:43:17;14.35;;;5.30;;
5616;SDS011;2830;50.656;7.568;2023-12-20T03:45:44;9.32;;;3.97;;
5616;SDS011;2830;50.656;7.568;2023-12-20T03:48:11;11.32;;;4.10;;
5616;SDS011;2830;50.656;7.568;2023-12-20T03:50:38;10.40;;;3.10;;
5616;SDS011;2830;50.656;7.568;2023-12-20T03:53:05;18.63;;;4.85;;
5616;SDS011;2830;50.656;7.568;2023-12-20T03:55:32;8.60;;;3.00;;
5616;SDS011;2830;50.656;7.568;2023-12-20T03:57:59;9.82;;;2.90;;
5616;SDS011;2830;50.656;7.568;2023-12-20T04:00:26;6.70;;;3.05;;
5616;SDS011;2830;50.656;7.568;2023-12-20T04:02:52;6.00;;;3.40;;
5616;SDS011;2830;50.656;7.568;2023-12-20T04:05:19;8.38;;;4.75;;
5616;SDS011;2830;50.656;7.568;2023-12-20T04:07:46;11.55;;;3.90;;
5616;SDS011;2830;50.656;7.568;2023-12-20T04:10:14;13.63;;;3.42;;
5616;SDS011;2830;50.656;7.568;2023-12-20T04:12:41;9.45;;;3.55;;
5616;SDS011;2830;50.656;7.568;2023-12-20T04:15:08;7.70;;;2.30;;
5616;SDS011;2830;50.656;7.568;2023-12-20T04:17:36;5.97;;;3.05;;
5616;SDS011;2830;50.656;7.568;2023-12-20T04:20:03;13.95;;;2.90;;
5616;SDS011;2830;50.656;7.568;2023-12-20T04:22:31;5.05;;;2.28;;
5616;SDS011;2830;50.656;7.568;2023-12-20T04:24:58;11.90;;;2.88;;
5616;SDS011;2830;50.656;7.568;2023-12-20T04:27:25;6.72;;;2.75;;
5616;SDS011;2830;50.656;7.568;2023-12-20T04:29:52;7.93;;;3.85;;
5616;SDS011;2830;50.656;7.568;2023-12-20T04:32:19;6.72;;;2.55;;
5616;SDS011;2830;50.656;7.568;2023-12-20T04:34:45;19.45;;;3.60;;
5616;SDS011;2830;50.656;7.568;2023-12-20T04:37:12;5.85;;;2.40;;
5616;SDS011;2830;50.656;7.568;2023-12-20T04:39:39;9.90;;;2.70;;
5616;SDS011;2830;50.656;7.568;2023-12-20T04:42:07;10.82;;;2.63;;
5616;SDS011;2830;50.656;7.568;2023-12-20T04:44:34;20.23;;;2.83;;
5616;SDS011;2830;50.656;7.568;2023-12-20T04:47:01;15.10;;;3.20;;
5616;SDS011;2830;50.656;7.568;2023-12-20T04:49:29;20.58;;;3.08;;
5616;SDS011;2830;50.656;7.568;2023-12-20T04:51:56;17.30;;;4.13;;
5616;SDS011;2830;50.656;7.568;2023-12-20T04:54:23;11.38;;;3.17;;
5616;SDS011;2830;50.656;7.568;2023-12-20T04:56:50;5.30;;;2.03;;
5616;SDS011;2830;50.656;7.568;2023-12-20T04:59:17;10.35;;;4.55;;
5616;SDS011;2830;50.656;7.568;2023-12-20T05:01:43;5.45;;;2.33;;
5616;SDS011;2830;50.656;7.568;2023-12-20T05:04:10;11.25;;;2.58;;
5616;SDS011;2830;50.656;7.568;2023-12-20T05:06:37;13.02;;;2.25;;
5616;SDS011;2830;50.656;7.568;2023-12-20T05:09:04;6.43;;;2.63;;
5616;SDS011;2830;50.656;7.568;2023-12-20T05:11:31;11.57;;;3.42;;
5616;SDS011;2830;50.656;7.568;2023-12-20T05:13:58;6.35;;;1.85;;
5616;SDS011;2830;50.656;7.568;2023-12-20T05:16:25;9.82;;;2.90;;
5616;SDS011;2830;50.656;7.568;2023-12-20T05:18:52;10.23;;;2.85;;
5616;SDS011;2830;50.656;7.568;2023-12-20T05:21:19;10.85;;;2.30;;
5616;SDS011;2830;50.656;7.568;2023-12-20T05:23:46;5.78;;;2.53;;
5616;SDS011;2830;50.656;7.568;2023-12-20T05:26:16;6.40;;;2.70;;
5616;SDS011;2830;50.656;7.568;2023-12-20T05:28:42;8.07;;;2.67;;
5616;SDS011;2830;50.656;7.568;2023-12-20T05:31:10;5.70;;;2.33;;
5616;SDS011;2830;50.656;7.568;2023-12-20T05:33:36;5.05;;;2.20;;
5616;SDS011;2830;50.656;7.568;2023-12-20T05:36:04;9.48;;;3.08;;
5616;SDS011;2830;50.656;7.568;2023-12-20T05:38:30;11.68;;;3.13;;
5616;SDS011;2830;50.656;7.568;2023-12-20T05:40:57;9.85;;;3.05;;
5616;SDS011;2830;50.656;7.568;2023-12-20T05:43:24;6.50;;;2.95;;
5616;SDS011;2830;50.656;7.568;2023-12-20T05:45:51;7.55;;;2.95;;
5616;SDS011;2830;50.656;7.568;2023-12-20T05:48:18;12.77;;;2.65;;
5616;SDS011;2830;50.656;7.568;2023-12-20T05:50:45;12.85;;;3.15;;
5616;SDS011;2830;50.656;7.568;2023-12-20T05:53:12;6.63;;;2.92;;
5616;SDS011;2830;50.656;7.568;2023-12-20T05:55:38;9.45;;;2.45;;
5616;SDS011;2830;50.656;7.568;2023-12-20T05:58:06;13.57;;;3.20;;
5616;SDS011;2830;50.656;7.568;2023-12-20T06:00:33;7.45;;;2.60;;
5616;SDS011;2830;50.656;7.568;2023-12-20T06:03:00;10.02;;;2.78;;
5616;SDS011;2830;50.656;7.568;2023-12-20T06:05:26;7.30;;;2.60;;
5616;SDS011;2830;50.656;7.568;2023-12-20T06:07:53;7.55;;;2.90;;
5616;SDS011;2830;50.656;7.568;2023-12-20T06:10:23;7.93;;;2.90;;
5616;SDS011;2830;50.656;7.568;2023-12-20T06:12:50;9.77;;;3.35;;
5616;SDS011;2830;50.656;7.568;2023-12-20T06:15:17;8.65;;;3.50;;
5616;SDS011;2830;50.656;7.568;2023-12-20T06:17:44;8.82;;;3.03;;
5616;SDS011;2830;50.656;7.568;2023-12-20T06:20:13;7.53;;;2.40;;
5616;SDS011;2830;50.656;7.568;2023-12-20T06:22:41;4.35;;;2.70;;
5616;SDS011;2830;50.656;7.568;2023-12-20T06:25:07;6.70;;;2.47;;
5616;SDS011;2830;50.656;7.568;2023-12-20T06:27:35;8.32;;;3.40;;
5616;SDS011;2830;50.656;7.568;2023-12-20T06:30:02;9.57;;;3.20;;
5616;SDS011;2830;50.656;7.568;2023-12-20T06:32:29;9.27;;;3.03;;
5616;SDS011;2830;50.656;7.568;2023-12-20T06:34:56;12.18;;;3.05;;
5616;SDS011;2830;50.656;7.568;2023-12-20T06:37:23;9.75;;;2.75;;
5616;SDS011;2830;50.656;7.568;2023-12-20T06:39:50;18.70;;;2.75;;
5616;SDS011;2830;50.656;7.568;2023-12-20T06:42:17;10.90;;;4.43;;
5616;SDS011;2830;50.656;7.568;2023-12-20T06:44:44;11.85;;;3.40;;
5616;SDS011;2830;50.656;7.568;2023-12-20T06:47:11;6.80;;;2.60;;
5616;SDS011;2830;50.656;7.568;2023-12-20T06:49:40;13.43;;;3.55;;
5616;SDS011;2830;50.656;7.568;2023-12-20T06:52:07;9.98;;;2.75;;
5616;SDS011;2830;50.656;7.568;2023-12-20T06:54:34;12.98;;;3.10;;
5616;SDS011;2830;50.656;7.568;2023-12-20T06:57:01;8.85;;;2.70;;
5616;SDS011;2830;50.656;7.568;2023-12-20T06:59:29;13.00;;;3.10;;
5616;SDS011;2830;50.656;7.568;2023-12-20T07:01:56;13.68;;;2.75;;
5616;SDS011;2830;50.656;7.568;2023-12-20T07:04:23;11.98;;;3.05;;
5616;SDS011;2830;50.656;7.568;2023-12-20T07:06:50;15.73;;;3.00;;
5616;SDS011;2830;50.656;7.568;2023-12-20T07:09:24;9.65;;;2.50;;
5616;SDS011;2830;50.656;7.568;2023-12-20T07:11:50;7.63;;;2.10;;
5616;SDS011;2830;50.656;7.568;2023-12-20T07:14:17;7.00;;;3.70;;
5616;SDS011;2830;50.656;7.568;2023-12-20T07:16:44;4.72;;;2.95;;
5616;SDS011;2830;50.656;7.568;2023-12-20T07:19:11;8.75;;;3.78;;
5616;SDS011;2830;50.656;7.568;2023-12-20T07:21:38;12.48;;;3.88;;
5616;SDS011;2830;50.656;7.568;2023-12-20T07:24:05;11.60;;;2.72;;
5616;SDS011;2830;50.656;7.568;2023-12-20T07:26:32;15.02;;;3.53;;
5616;SDS011;2830;50.656;7.568;2023-12-20T07:29:00;9.25;;;3.20;;
5616;SDS011;2830;50.656;7.568;2023-12-20T07:31:27;12.90;;;2.78;;
5616;SDS011;2830;50.656;7.568;2023-12-20T07:33:54;10.93;;;3.00;;
5616;SDS011;2830;50.656;7.568;2023-12-20T07:36:21;11.27;;;4.05;;
5616;SDS011;2830;50.656;7.568;2023-12-20T07:38:47;11.18;;;4.35;;
5616;SDS011;2830;50.656;7.568;2023-12-20T07:41:14;11.75;;;3.28;;
5616;SDS011;2830;50.656;7.568;2023-12-20T07:43:47;17.58;;;4.18;;
5616;SDS011;2830;50.656;7.568;2023-12-20T07:46:14;8.77;;;2.72;;
5616;SDS011;2830;50.656;7.568;2023-12-20T07:48:41;17.48;;;3.85;;
5616;SDS011;2830;50.656;7.568;2023-12-20T07:51:11;9.63;;;2.63;;
5616;SDS011;2830;50.656;7.568;2023-12-20T07:53:38;12.93;;;4.25;;
5616;SDS011;2830;50.656;7.568;2023-12-20T07:56:27;12.02;;;5.00;;
5616;SDS011;2830;50.656;7.568;2023-12-20T07:58:52;4.60;;;2.38;;
5616;SDS011;2830;50.656;7.568;2023-12-20T08:01:20;9.13;;;2.90;;
5616;SDS011;2830;50.656;7.568;2023-12-20T08:03:48;9.68;;;3.78;;
5616;SDS011;2830;50.656;7.568;2023-12-20T08:06:16;10.82;;;3.33;;
5616;SDS011;2830;50.656;7.568;2023-12-20T08:08:44;7.93;;;3.22;;
5616;SDS011;2830;50.656;7.568;2023-12-20T08:11:10;11.90;;;4.38;;
5616;SDS011;2830;50.656;7.568;2023-12-20T08:13:37;6.38;;;2.40;;
5616;SDS011;2830;50.656;7.568;2023-12-20T08:16:04;15.18;;;3.05;;
5616;SDS011;2830;50.656;7.568;2023-12-20T08:18:32;8.45;;;3.15;;
5616;SDS011;2830;50.656;7.568;2023-12-20T08:20:58;10.32;;;2.75;;
5616;SDS011;2830;50.656;7.568;2023-12-20T08:23:26;9.05;;;2.60;;
5616;SDS011;2830;50.656;7.568;2023-12-20T08:25:55;18.05;;;3.72;;
5616;SDS011;2830;50.656;7.568;2023-12-20T08:28:22;7.53;;;2.50;;
5616;SDS011;2830;50.656;7.568;2023-12-20T08:30:49;7.25;;;2.50;;
5616;SDS011;2830;50.656;7.568;2023-12-20T08:33:20;6.55;;;2.17;;
5616;SDS011;2830;50.656;7.568;2023-12-20T08:35:47;9.88;;;2.90;;
5616;SDS011;2830;50.656;7.568;2023-12-20T08:38:14;10.10;;;2.80;;
5616;SDS011;2830;50.656;7.568;2023-12-20T08:40:41;9.77;;;2.83;;
5616;SDS011;2830;50.656;7.568;2023-12-20T08:43:08;9.90;;;2.45;;
5616;SDS011;2830;50.656;7.568;2023-12-20T08:45:35;10.95;;;3.38;;
5616;SDS011;2830;50.656;7.568;2023-12-20T08:48:02;13.20;;;2.58;;
5616;SDS011;2830;50.656;7.568;2023-12-20T08:50:33;10.75;;;2.15;;
5616;SDS011;2830;50.656;7.568;2023-12-20T08:53:00;5.60;;;2.50;;
5616;SDS011;2830;50.656;7.568;2023-12-20T08:55:27;10.93;;;2.65;;
5616;SDS011;2830;50.656;7.568;2023-12-20T08:57:55;6.93;;;2.47;;
5616;SDS011;2830;50.656;7.568;2023-12-20T09:00:22;15.75;;;2.53;;
5616;SDS011;2830;50.656;7.568;2023-12-20T09:02:52;17.13;;;3.85;;
5616;SDS011;2830;50.656;7.568;2023-12-20T09:05:19;8.10;;;2.42;;
5616;SDS011;2830;50.656;7.568;2023-12-20T09:07:46;5.00;;;2.17;;
5616;SDS011;2830;50.656;7.568;2023-12-20T09:10:13;7.60;;;2.17;;
5616;SDS011;2830;50.656;7.568;2023-12-20T09:12:42;9.85;;;3.03;;
5616;SDS011;2830;50.656;7.568;2023-12-20T09:15:09;13.20;;;2.75;;
5616;SDS011;2830;50.656;7.568;2023-12-20T09:17:36;12.02;;;2.67;;
5616;SDS011;2830;50.656;7.568;2023-12-20T09:20:03;10.05;;;3.63;;
5616;SDS011;2830;50.656;7.568;2023-12-20T09:22:33;8.50;;;2.15;;
5616;SDS011;2830;50.656;7.568;2023-12-20T09:25:00;5.72;;;2.15;;
5616;SDS011;2830;50.656;7.568;2023-12-20T09:27:28;9.40;;;2.35;;
5616;SDS011;2830;50.656;7.568;2023-12-20T09:29:55;7.03;;;2.05;;
5616;SDS011;2830;50.656;7.568;2023-12-20T09:32:22;8.07;;;2.58;;
5616;SDS011;2830;50.656;7.568;2023-12-20T09:34:48;2.78;;;1.75;;
5616;SDS011;2830;50.656;7.568;2023-12-20T09:37:15;8.52;;;2.22;;
5616;SDS011;2830;50.656;7.568;2023-12-20T09:39:42;6.07;;;2.08;;
5616;SDS011;2830;50.656;7.568;2023-12-20T09:42:10;5.00;;;1.90;;
5616;SDS011;2830;50.656;7.568;2023-12-20T09:44:43;8.02;;;1.80;;
5616;SDS011;2830;50.656;7.568;2023-12-20T09:47:13;6.50;;;2.05;;
5616;SDS011;2830;50.656;7.568;2023-12-20T09:49:42;5.97;;;1.85;;
5616;SDS011;2830;50.656;7.568;2023-12-20T09:52:10;6.65;;;2.25;;
5616;SDS011;2830;50.656;7.568;2023-12-20T09:54:39;5.93;;;1.92;;
5616;SDS011;2830;50.656;7.568;2023-12-20T09:57:07;9.57;;;2.10;;
5616;SDS011;2830;50.656;7.568;2023-12-20T09:59:35;11.35;;;1.88;;
5616;SDS011;2830;50.656;7.568;2023-12-20T10:02:02;6.65;;;2.10;;
5616;SDS011;2830;50.656;7.568;2023-12-20T10:04:32;6.03;;;1.67;;
5616;SDS011;2830;50.656;7.568;2023-12-20T10:07:01;12.88;;;2.78;;
5616;SDS011;2830;50.656;7.568;2023-12-20T10:09:32;7.70;;;1.67;;
5616;SDS011;2830;50.656;7.568;2023-12-20T10:12:00;6.40;;;1.70;;
5616;SDS011;2830;50.656;7.568;2023-12-20T10:14:27;3.95;;;1.50;;
5616;SDS011;2830;50.656;7.568;2023-12-20T10:16:56;9.85;;;1.58;;
5616;SDS011;2830;50.656;7.568;2023-12-20T10:19:29;6.18;;;2.42;;
5616;SDS011;2830;50.656;7.568;2023-12-20T10:21:56;7.63;;;1.95;;
5616;SDS011;2830;50.656;7.568;2023-12-20T10:24:28;8.60;;;1.77;;
5616;SDS011;2830;50.656;7.568;2023-12-20T10:27:06;5.57;;;1.70;;
5616;SDS011;2830;50.656;7.568;2023-12-20T10:29:37;4.25;;;1.65;;
5616;SDS011;2830;50.656;7.568;2023-12-20T10:32:24;6.82;;;1.60;;
5616;SDS011;2830;50.656;7.568;2023-12-20T10:34:53;4.65;;;1.40;;
5616;SDS011;2830;50.656;7.568;2023-12-20T10:37:21;6.18;;;1.73;;
5616;SDS011;2830;50.656;7.568;2023-12-20T10:39:52;11.85;;;2.10;;
5616;SDS011;2830;50.656;7.568;2023-12-20T10:42:27;4.65;;;1.52;;
5616;SDS011;2830;50.656;7.568;2023-12-20T10:44:55;9.63;;;2.60;;
5616;SDS011;2830;50.656;7.568;2023-12-20T10:47:24;5.38;;;2.50;;
5616;SDS011;2830;50.656;7.568;2023-12-20T10:49:53;7.40;;;1.50;;
5616;SDS011;2830;50.656;7.568;2023-12-20T10:52:22;7.15;;;2.03;;
5616;SDS011;2830;50.656;7.568;2023-12-20T10:54:51;7.90;;;2.60;;
5616;SDS011;2830;50.656;7.568;2023-12-20T10:57:18;6.97;;;1.83;;
5616;SDS011;2830;50.656;7.568;2023-12-20T10:59:45;8.57;;;2.80;;
5616;SDS011;2830;50.656;7.568;2023-12-20T11:02:19;6.15;;;2.60;;
5616;SDS011;2830;50.656;7.568;2023-12-20T11:05:05;13.50;;;2.05;;
5616;SDS011;2830;50.656;7.568;2023-12-20T11:07:43;4.40;;;1.90;;
5616;SDS011;2830;50.656;7.568;2023-12-20T11:10:18;7.82;;;1.83;;
5616;SDS011;2830;50.656;7.568;2023-12-20T11:12:51;5.70;;;2.03;;
5616;SDS011;2830;50.656;7.568;2023-12-20T11:15:24;8.48;;;1.80;;
5616;SDS011;2830;50.656;7.568;2023-12-20T11:17:56;11.65;;;2.35;;
5616;SDS011;2830;50.656;7.568;2023-12-20T11:20:34;7.60;;;1.92;;
5616;SDS011;2830;50.656;7.568;2023-12-20T11:23:06;10.43;;;1.88;;
5616;SDS011;2830;50.656;7.568;2023-12-20T11:25:46;12.75;;;2.30;;
5616;SDS011;2830;50.656;7.568;2023-12-20T11:28:21;7.47;;;2.05;;
5616;SDS011;2830;50.656;7.568;2023-12-20T11:30:53;5.03;;;2.08;;
5616;SDS011;2830;50.656;7.568;2023-12-20T11:33:22;3.97;;;1.45;;
5616;SDS011;2830;50.656;7.568;2023-12-20T11:35:58;7.60;;;1.85;;
5616;SDS011;2830;50.656;7.568;2023-12-20T11:38:26;6.90;;;1.92;;
5616;SDS011;2830;50.656;7.568;2023-12-20T11:40:54;8.65;;;2.15;;
5616;SDS011;2830;50.656;7.568;2023-12-20T11:43:32;5.55;;;1.70;;
5616;SDS011;2830;50.656;7.568;2023-12-20T11:46:06;6.82;;;1.88;;
5616;SDS011;2830;50.656;7.568;2023-12-20T11:48:37;7.22;;;2.08;;
5616;SDS011;2830;50.656;7.568;2023-12-20T11:51:09;3.22;;;1.88;;
5616;SDS011;2830;50.656;7.568;2023-12-20T11:53:37;6.75;;;2.40;;
5616;SDS011;2830;50.656;7.568;2023-12-20T11:56:05;4.72;;;1.90;;
5616;SDS011;2830;50.656;7.568;2023-12-20T11:58:33;6.22;;;2.10;;
5616;SDS011;2830;50.656;7.568;2023-12-20T12:01:01;7.85;;;2.40;;
5616;SDS011;2830;50.656;7.568;2023-12-20T12:03:31;3.88;;;1.70;;
5616;SDS011;2830;50.656;7.568;2023-12-20T12:05:59;7.68;;;2.83;;
5616;SDS011;2830;50.656;7.568;2023-12-20T12:08:27;8.35;;;2.25;;
5616;SDS011;2830;50.656;7.568;2023-12-20T12:10:54;9.77;;;2.35;;
5616;SDS011;2830;50.656;7.568;2023-12-20T12:13:20;7.65;;;1.85;;
5616;SDS011;2830;50.656;7.568;2023-12-20T12:15:48;6.82;;;1.95;;
5616;SDS011;2830;50.656;7.568;2023-12-20T12:18:16;6.10;;;1.77;;
5616;SDS011;2830;50.656;7.568;2023-12-20T12:20:43;7.75;;;2.60;;
5616;SDS011;2830;50.656;7.568;2023-12-20T12:23:10;5.35;;;1.33;;
5616;SDS011;2830;50.656;7.568;2023-12-20T12:25:37;14.10;;;2.92;;
5616;SDS011;2830;50.656;7.568;2023-12-20T12:28:08;5.82;;;2.45;;
5616;SDS011;2830;50.656;7.568;2023-12-20T12:30:36;10.35;;;3.33;;
5616;SDS011;2830;50.656;7.568;2023-12-20T12:33:11;7.53;;;2.05;;
5616;SDS011;2830;50.656;7.568;2023-12-20T12:35:39;15.27;;;2.30;;
5616;SDS011;2830;50.656;7.568;2023-12-20T12:38:07;11.13;;;2.22;;
5616;SDS011;2830;50.656;7.568;2023-12-20T12:40:35;5.85;;;2.00;;
5616;SDS011;2830;50.656;7.568;2023-12-20T12:43:04;8.15;;;2.40;;
5616;SDS011;2830;50.656;7.568;2023-12-20T12:45:33;10.38;;;2.25;;
5616;SDS011;2830;50.656;7.568;2023-12-20T12:48:00;9.25;;;2.22;;
5616;SDS011;2830;50.656;7.568;2023-12-20T12:50:27;11.15;;;2.28;;
5616;SDS011;2830;50.656;7.568;2023-12-20T12:52:55;8.50;;;2.42;;
5616;SDS011;2830;50.656;7.568;2023-12-20T12:55:22;8.57;;;2.05;;
5616;SDS011;2830;50.656;7.568;2023-12-20T12:57:49;7.00;;;2.95;;
5616;SDS011;2830;50.656;7.568;2023-12-20T13:00:16;6.32;;;1.88;;
5616;SDS011;2830;50.656;7.568;2023-12-20T13:02:43;4.43;;;2.13;;
5616;SDS011;2830;50.656;7.568;2023-12-20T13:05:10;8.10;;;1.67;;
5616;SDS011;2830;50.656;7.568;2023-12-20T13:07:37;3.35;;;2.17;;
5616;SDS011;2830;50.656;7.568;2023-12-20T13:10:05;5.03;;;2.22;;
5616;SDS011;2830;50.656;7.568;2023-12-20T13:12:33;7.43;;;1.90;;
5616;SDS011;2830;50.656;7.568;2023-12-20T13:14:59;5.97;;;1.88;;
5616;SDS011;2830;50.656;7.568;2023-12-20T13:17:26;6.15;;;1.25;;
5616;SDS011;2830;50.656;7.568;2023-12-20T13:19:56;5.53;;;1.90;;
5616;SDS011;2830;50.656;7.568;2023-12-20T13:22:23;3.85;;;2.00;;
5616;SDS011;2830;50.656;7.568;2023-12-20T13:24:50;3.30;;;2.05;;
5616;SDS011;2830;50.656;7.568;2023-12-20T13:27:17;11.40;;;2.20;;
5616;SDS011;2830;50.656;7.568;2023-12-20T13:29:45;5.45;;;2.70;;
5616;SDS011;2830;50.656;7.568;2023-12-20T13:32:11;7.10;;;2.92;;
5616;SDS011;2830;50.656;7.568;2023-12-20T13:34:38;4.15;;;1.88;;
5616;SDS011;2830;50.656;7.568;2023-12-20T13:37:06;4.78;;;2.10;;
5616;SDS011;2830;50.656;7.568;2023-12-20T13:39:32;6.20;;;1.90;;
5616;SDS011;2830;50.656;7.568;2023-12-20T13:41:59;9.75;;;2.45;;
5616;SDS011;2830;50.656;7.568;2023-12-20T13:44:27;4.93;;;2.40;;
5616;SDS011;2830;50.656;7.568;2023-12-20T13:46:53;11.00;;;3.28;;
5616;SDS011;2830;50.656;7.568;2023-12-20T13:49:20;5.15;;;3.00;;
5616;SDS011;2830;50.656;7.568;2023-12-20T13:51:52;5.68;;;3.00;;
5616;SDS011;2830;50.656;7.568;2023-12-20T13:54:21;6.68;;;2.63;;
5616;SDS011;2830;50.656;7.568;2023-12-20T13:56:48;11.75;;;3.13;;
5616;SDS011;2830;50.656;7.568;2023-12-20T13:59:34;6.45;;;2.63;;
5616;SDS011;2830;50.656;7.568;2023-12-20T14:02:01;7.35;;;3.80;;
5616;SDS011;2830;50.656;7.568;2023-12-20T14:04:30;9.75;;;3.67;;
5616;SDS011;2830;50.656;7.568;2023-12-20T14:07:08;7.28;;;2.38;;
5616;SDS011;2830;50.656;7.568;2023-12-20T14:09:38;12.50;;;3.45;;
5616;SDS011;2830;50.656;7.568;2023-12-20T14:12:05;5.75;;;2.60;;
5616;SDS011;2830;50.656;7.568;2023-12-20T14:14:33;5.68;;;3.20;;
5616;SDS011;2830;50.656;7.568;2023-12-20T14:16:59;10.68;;;3.25;;
5616;SDS011;2830;50.656;7.568;2023-12-20T14:19:26;6.70;;;3.22;;
5616;SDS011;2830;50.656;7.568;2023-12-20T14:21:53;7.68;;;2.70;;
5616;SDS011;2830;50.656;7.568;2023-12-20T14:24:20;7.30;;;2.72;;
5616;SDS011;2830;50.656;7.568;2023-12-20T14:26:47;7.40;;;2.80;;
5616;SDS011;2830;50.656;7.568;2023-12-20T14:29:14;5.85;;;3.10;;
5616;SDS011;2830;50.656;7.568;2023-12-20T14:31:41;11.93;;;2.85;;
5616;SDS011;2830;50.656;7.568;2023-12-20T14:34:08;8.95;;;2.40;;
5616;SDS011;2830;50.656;7.568;2023-12-20T14:36:35;9.68;;;2.63;;
5616;SDS011;2830;50.656;7.568;2023-12-20T14:39:02;6.68;;;2.20;;
5616;SDS011;2830;50.656;7.568;2023-12-20T14:41:30;3.45;;;1.83;;
5616;SDS011;2830;50.656;7.568;2023-12-20T14:43:58;4.63;;;1.92;;
5616;SDS011;2830;50.656;7.568;2023-12-20T14:46:26;2.45;;;1.90;;
5616;SDS011;2830;50.656;7.568;2023-12-20T14:48:55;3.67;;;1.73;;
5616;SDS011;2830;50.656;7.568;2023-12-20T14:51:22;5.05;;;1.90;;
5616;SDS011;2830;50.656;7.568;2023-12-20T14:53:49;4.90;;;1.70;;
5616;SDS011;2830;50.656;7.568;2023-12-20T14:56:16;8.30;;;2.05;;
5616;SDS011;2830;50.656;7.568;2023-12-20T14:58:43;4.13;;;1.50;;
5616;SDS011;2830;50.656;7.568;2023-12-20T15:01:09;6.78;;;1.88;;
5616;SDS011;2830;50.656;7.568;2023-12-20T15:03:36;5.97;;;1.30;;
5616;SDS011;2830;50.656;7.568;2023-12-20T15:06:06;2.60;;;1.25;;
5616;SDS011;2830;50.656;7.568;2023-12-20T15:08:33;6.05;;;1.50;;
5616;SDS011;2830;50.656;7.568;2023-12-20T15:11:00;5.95;;;1.95;;
5616;SDS011;2830;50.656;7.568;2023-12-20T15:13:29;2.67;;;1.20;;
5616;SDS011;2830;50.656;7.568;2023-12-20T15:15:57;3.47;;;1.15;;